Time;durP1;ratioP1;P1;durP2;ratioP2;P2;SDS_P1;SDS_P2;PMS_P1;PMS_P2;Temp;Humidity;BMP_temperature;BMP_pressure;BME280_temperature;BME280_humidity;BME280_pressure;Samples;Min_cycle;Max_cycle;Signal;HPM_P1;HPM_P2
2022/01/26 00:06:01;;;;;;;61.30;30.33;;;0.60;99.90;;;;;;5068645;28;20277;-87
2022/01/26 00:08:26;;;;;;;59.90;30.20;;;0.60;99.90;;;;;;5097679;28;20716;-88
2022/01/26 00:10:52;;;;;;;63.47;30.77;;;0.60;99.90;;;;;;5075818;28;20198;-87
2022/01/26 00:13:18;;;;;;;75.20;32.63;;;0.50;99.90;;;;;;5097249;28;20262;-88
2022/01/26 00:15:44;;;;;;;74.13;33.77;;;0.40;99.90;;;;;;5099109;28;20178;-87
2022/01/26 00:18:09;;;;;;;76.03;34.87;;;0.30;99.90;;;;;;5094567;28;20654;-87
2022/01/26 00:20:45;;;;;;;77.30;35.83;;;0.20;99.90;;;;;;5090324;28;20191;-87
2022/01/26 00:28:56;;;;;;;79.80;34.30;;;0.20;99.90;;;;;;5085399;28;20215;-88
2022/01/26 00:39:32;;;;;;;141.00;38.10;;;0.10;99.90;;;;;;5082236;28;20198;-88
2022/01/26 00:41:59;;;;;;;147.37;35.83;;;0.10;99.90;;;;;;5079822;28;20179;-88
2022/01/26 00:44:38;;;;;;;99.97;34.70;;;0.10;99.90;;;;;;5084071;28;20194;-88
2022/01/26 00:47:04;;;;;;;94.63;34.63;;;0.00;99.90;;;;;;5079388;28;20300;-87
2022/01/26 00:49:29;;;;;;;68.07;34.27;;;0.10;99.90;;;;;;5090580;28;20614;-88
2022/01/26 00:51:55;;;;;;;90.83;34.77;;;0.10;99.90;;;;;;5078454;28;20195;-88
2022/01/26 00:54:21;;;;;;;163.77;39.60;;;0.20;99.90;;;;;;5081415;28;20837;-88
2022/01/26 00:56:48;;;;;;;120.57;35.53;;;-0.10;99.90;;;;;;5082110;28;20231;-89
2022/01/26 00:59:13;;;;;;;105.87;38.40;;;-0.10;99.90;;;;;;5080257;28;20187;-88
2022/01/26 01:01:39;;;;;;;92.53;35.20;;;-0.10;99.90;;;;;;5077675;28;20559;-88
2022/01/26 01:04:05;;;;;;;120.07;34.20;;;-0.10;99.90;;;;;;5080641;28;20179;-88
2022/01/26 01:06:39;;;;;;;108.60;35.87;;;-0.10;99.90;;;;;;5076492;28;20195;-88
2022/01/26 01:09:05;;;;;;;100.20;33.80;;;-0.20;99.90;;;;;;5079925;28;20650;-88
2022/01/26 01:11:31;;;;;;;102.77;36.53;;;-0.10;99.90;;;;;;5062484;28;20332;-88
2022/01/26 01:13:57;;;;;;;120.77;36.27;;;-0.20;99.90;;;;;;5079660;28;20549;-88
2022/01/26 01:16:25;;;;;;;110.37;34.63;;;-0.10;99.90;;;;;;5085134;28;20674;-88
2022/01/26 01:19:00;;;;;;;79.80;33.77;;;-0.10;99.90;;;;;;5085926;28;20190;-88
2022/01/26 01:34:05;;;;;;;84.00;32.80;;;0.00;99.90;;;;;;5078481;28;20583;-88
2022/01/26 01:36:32;;;;;;;76.07;33.40;;;0.00;99.90;;;;;;5073629;28;20378;-88
2022/01/26 01:38:58;;;;;;;98.70;33.07;;;-0.10;99.90;;;;;;5082142;28;20183;-89
2022/01/26 01:41:24;;;;;;;83.60;33.47;;;-0.10;99.90;;;;;;5079880;28;20657;-89
2022/01/26 01:43:50;;;;;;;69.50;32.50;;;-0.10;99.90;;;;;;5077352;28;20233;-88
2022/01/26 01:46:16;;;;;;;68.57;31.70;;;-0.10;99.90;;;;;;5079819;28;20192;-89
2022/01/26 01:48:42;;;;;;;65.53;31.77;;;0.00;99.90;;;;;;5076456;28;20345;-88
2022/01/26 01:51:11;;;;;;;71.70;32.40;;;-0.10;99.90;;;;;;5077592;28;20190;-89
2022/01/26 01:53:42;;;;;;;83.37;33.33;;;0.00;99.90;;;;;;5073690;28;20652;-88
2022/01/26 01:56:11;;;;;;;80.17;33.73;;;0.00;99.90;;;;;;5076861;28;20253;-89
2022/01/26 01:58:37;;;;;;;85.20;32.30;;;0.00;99.90;;;;;;5072759;28;20215;-88
2022/01/26 02:01:04;;;;;;;71.53;33.00;;;0.00;99.90;;;;;;5060566;28;20222;-88
2022/01/26 02:03:30;;;;;;;69.90;31.97;;;0.00;99.90;;;;;;5096352;28;20191;-88
2022/01/26 02:05:56;;;;;;;72.90;31.30;;;0.10;99.90;;;;;;5099728;28;20199;-89
2022/01/26 02:08:22;;;;;;;66.67;31.63;;;0.00;99.90;;;;;;5097588;28;20866;-88
2022/01/26 02:10:48;;;;;;;64.13;32.27;;;-0.10;99.90;;;;;;5075096;28;20183;-88
2022/01/26 02:13:21;;;;;;;59.63;28.40;;;-0.10;99.90;;;;;;5074762;28;20214;-88
2022/01/26 02:18:43;;;;;;;64.57;31.93;;;0.10;99.90;;;;;;5096194;28;20239;-88
2022/01/26 02:21:25;;;;;;;79.70;32.73;;;0.00;99.90;;;;;;5086399;28;20183;-88
2022/01/26 02:51:53;;;;;;;39.97;23.00;;;0.40;99.90;;;;;;5080047;28;20221;-89
2022/01/26 03:02:08;;;;;;;44.30;22.83;;;0.20;99.90;;;;;;5062933;28;20206;-88
2022/01/26 03:04:47;;;;;;;42.87;24.37;;;0.30;99.90;;;;;;5087244;28;20187;-88
2022/01/26 03:07:36;;;;;;;48.37;24.67;;;0.30;99.90;;;;;;5082741;28;20202;-88
2022/01/26 03:10:16;;;;;;;54.07;23.73;;;0.20;99.90;;;;;;5075515;28;20195;-88
2022/01/26 03:12:57;;;;;;;49.47;23.20;;;0.20;99.90;;;;;;5073971;28;20195;-88
2022/01/26 03:15:32;;;;;;;48.03;22.90;;;0.20;99.90;;;;;;5087893;28;20257;-88
2022/01/26 03:20:59;;;;;;;44.27;23.77;;;-0.10;99.90;;;;;;5058597;28;20199;-88
2022/01/26 03:36:45;;;;;;;47.37;22.57;;;0.10;99.90;;;;;;5084995;28;20199;-89
2022/01/26 03:39:14;;;;;;;36.23;20.60;;;-0.10;99.90;;;;;;5077191;28;20179;-88
2022/01/26 03:44:12;;;;;;;44.67;22.20;;;0.10;99.90;;;;;;5073332;28;20219;-89
2022/01/26 03:46:38;;;;;;;38.33;23.03;;;0.10;99.90;;;;;;5094080;28;20182;-88
2022/01/26 03:49:05;;;;;;;47.07;22.27;;;0.00;99.90;;;;;;5089074;28;20297;-89
2022/01/26 03:51:32;;;;;;;44.77;22.80;;;0.00;99.90;;;;;;5081961;28;20190;-88
2022/01/26 03:53:58;;;;;;;47.67;23.83;;;-0.10;99.90;;;;;;5081039;28;20176;-88
2022/01/26 03:56:23;;;;;;;40.83;22.20;;;-0.10;99.90;;;;;;5084906;28;20247;-88
2022/01/26 03:58:49;;;;;;;40.87;22.73;;;-0.20;99.90;;;;;;5067009;28;20230;-88
2022/01/26 04:01:15;;;;;;;43.03;22.30;;;-0.30;99.90;;;;;;5097515;28;20185;-88
2022/01/26 04:03:40;;;;;;;43.23;21.40;;;-0.10;99.90;;;;;;5098625;28;20183;-89
2022/01/26 04:06:06;;;;;;;51.57;23.60;;;-0.30;99.90;;;;;;5089096;28;20290;-87
2022/01/26 04:08:34;;;;;;;44.80;22.03;;;-0.40;99.90;;;;;;5086235;28;20497;-88
2022/01/26 04:11:14;;;;;;;46.13;22.70;;;-0.40;99.90;;;;;;5081367;28;20249;-88
2022/01/26 04:13:40;;;;;;;40.77;21.23;;;-0.50;99.90;;;;;;5085670;28;20308;-88
2022/01/26 04:16:07;;;;;;;42.00;21.37;;;-0.50;99.90;;;;;;5083188;28;20198;-88
2022/01/26 04:18:36;;;;;;;46.40;22.07;;;-0.50;99.90;;;;;;5077795;28;20216;-88
2022/01/26 04:23:52;;;;;;;42.33;22.10;;;-0.50;99.90;;;;;;5081517;28;20202;-88
2022/01/26 04:26:23;;;;;;;37.30;22.13;;;-0.30;99.90;;;;;;5080219;28;20199;-88
2022/01/26 04:28:58;;;;;;;36.97;22.77;;;-0.30;99.90;;;;;;5081265;28;20211;-88
2022/01/26 04:31:24;;;;;;;39.10;20.93;;;-0.40;99.90;;;;;;5083564;28;20194;-88
2022/01/26 04:33:50;;;;;;;40.50;21.23;;;-0.40;99.90;;;;;;5091313;28;20492;-88
2022/01/26 04:36:23;;;;;;;37.57;20.13;;;-0.20;99.90;;;;;;5086402;28;20210;-88
2022/01/26 04:38:53;;;;;;;35.23;21.13;;;-0.20;99.90;;;;;;5076625;28;20211;-88
2022/01/26 04:41:41;;;;;;;36.60;21.77;;;-0.10;99.90;;;;;;5087843;28;20245;-88
2022/01/26 04:44:20;;;;;;;33.77;19.67;;;-0.20;99.90;;;;;;5073777;28;20187;-88
2022/01/26 04:46:46;;;;;;;33.93;20.70;;;-0.10;99.90;;;;;;5091304;28;20344;-88
2022/01/26 04:49:11;;;;;;;35.40;21.13;;;-0.20;99.90;;;;;;5087552;28;20187;-88
2022/01/26 04:51:37;;;;;;;45.20;21.80;;;-0.20;99.90;;;;;;5095439;28;20187;-88
2022/01/26 04:54:03;;;;;;;32.70;19.73;;;-0.30;99.90;;;;;;5097127;28;20195;-88
2022/01/26 04:56:29;;;;;;;38.97;21.27;;;-0.30;99.90;;;;;;5081773;28;20202;-88
2022/01/26 04:58:54;;;;;;;40.93;21.77;;;-0.30;99.90;;;;;;5083098;28;20223;-88
2022/01/26 05:01:20;;;;;;;41.50;21.97;;;-0.30;99.90;;;;;;5086330;28;20199;-88
2022/01/26 05:03:46;;;;;;;37.37;20.60;;;-0.30;99.90;;;;;;5083589;28;20217;-88
2022/01/26 05:06:12;;;;;;;40.57;21.67;;;-0.30;99.90;;;;;;5072589;28;20557;-88
2022/01/26 05:08:37;;;;;;;38.27;21.27;;;-0.10;99.90;;;;;;5096471;28;20294;-88
2022/01/26 05:11:05;;;;;;;41.57;21.97;;;0.00;99.90;;;;;;5069441;28;20211;-88
2022/01/26 05:13:31;;;;;;;44.80;22.47;;;-0.10;99.90;;;;;;5083493;28;20183;-88
2022/01/26 05:15:57;;;;;;;51.37;23.37;;;-0.10;99.90;;;;;;5055142;28;20199;-88
2022/01/26 05:18:24;;;;;;;47.67;24.27;;;-0.10;99.90;;;;;;5070855;28;20233;-88
2022/01/26 05:20:50;;;;;;;48.23;22.17;;;-0.10;99.90;;;;;;5083872;28;20190;-88
2022/01/26 05:23:16;;;;;;;44.50;23.20;;;-0.30;99.90;;;;;;5088704;28;20188;-88
2022/01/26 05:25:41;;;;;;;43.30;22.87;;;-0.10;99.90;;;;;;5098566;28;20211;-89
2022/01/26 05:28:07;;;;;;;43.17;23.07;;;-0.10;99.90;;;;;;5082910;28;20214;-88
2022/01/26 05:30:33;;;;;;;48.17;23.00;;;0.00;99.90;;;;;;5077044;28;20199;-88
2022/01/26 05:32:58;;;;;;;41.30;23.47;;;0.00;99.90;;;;;;5093700;28;20324;-88
2022/01/26 05:35:24;;;;;;;51.67;25.47;;;-0.10;99.90;;;;;;5086094;28;20219;-88
2022/01/26 05:37:50;;;;;;;51.67;25.13;;;-0.10;99.90;;;;;;5082387;28;20219;-88
2022/01/26 05:40:16;;;;;;;45.67;24.83;;;-0.20;99.90;;;;;;5069687;28;21412;-88
2022/01/26 05:42:42;;;;;;;53.83;27.53;;;0.00;99.90;;;;;;5083387;28;20195;-88
2022/01/26 05:45:18;;;;;;;53.10;28.53;;;-0.20;99.90;;;;;;5085607;28;20187;-88
2022/01/26 05:47:44;;;;;;;44.70;26.20;;;-0.30;99.90;;;;;;5093027;28;20210;-88
2022/01/26 05:50:09;;;;;;;50.07;26.53;;;-0.10;99.90;;;;;;5095372;28;20183;-88
2022/01/26 05:52:35;;;;;;;50.40;26.27;;;-0.10;99.90;;;;;;5068228;28;20349;-88
2022/01/26 05:55:01;;;;;;;47.13;27.03;;;0.00;99.90;;;;;;5083758;28;20619;-87
2022/01/26 05:57:26;;;;;;;43.63;26.93;;;0.00;99.90;;;;;;5081375;28;20408;-88
2022/01/26 05:59:54;;;;;;;42.33;23.40;;;0.10;99.90;;;;;;5063710;28;20191;-88
2022/01/26 06:02:20;;;;;;;124.67;83.00;;;0.10;99.90;;;;;;5087241;28;20255;-88
2022/01/26 06:04:45;;;;;;;37.90;23.77;;;0.00;99.90;;;;;;5087419;28;20211;-88
2022/01/26 06:07:11;;;;;;;43.80;24.83;;;0.10;99.90;;;;;;5081794;28;20534;-88
2022/01/26 06:09:37;;;;;;;43.87;25.67;;;0.00;99.90;;;;;;5080710;28;20198;-88
2022/01/26 06:12:03;;;;;;;42.27;24.87;;;0.10;99.90;;;;;;5084369;28;20195;-88
2022/01/26 06:14:28;;;;;;;41.27;25.33;;;0.10;99.90;;;;;;5086911;28;20214;-88
2022/01/26 06:16:54;;;;;;;45.43;24.73;;;0.20;99.90;;;;;;5084863;28;20215;-88
2022/01/26 06:19:20;;;;;;;46.57;26.80;;;0.20;99.90;;;;;;5087976;28;20234;-88
2022/01/26 06:21:46;;;;;;;47.80;26.23;;;0.00;99.90;;;;;;5059836;28;20290;-87
2022/01/26 06:24:11;;;;;;;41.90;25.27;;;0.10;99.90;;;;;;5067440;28;20199;-88
2022/01/26 06:26:38;;;;;;;53.87;28.73;;;0.10;99.90;;;;;;5075327;28;20191;-88
2022/01/26 06:29:04;;;;;;;44.07;24.93;;;0.10;99.90;;;;;;5076602;28;20228;-88
2022/01/26 06:31:29;;;;;;;50.10;25.87;;;0.10;99.90;;;;;;5099027;28;20198;-88
2022/01/26 06:33:57;;;;;;;51.43;25.57;;;0.10;99.90;;;;;;5097281;28;20222;-88
2022/01/26 06:36:22;;;;;;;44.73;25.70;;;0.00;99.90;;;;;;5078125;28;20202;-88
2022/01/26 06:38:49;;;;;;;46.23;25.33;;;0.10;99.90;;;;;;5085846;28;20222;-88
2022/01/26 06:41:22;;;;;;;50.33;27.10;;;0.10;99.90;;;;;;5088567;28;20179;-88
2022/01/26 06:43:53;;;;;;;43.30;25.13;;;0.00;99.90;;;;;;5089375;28;20317;-88
2022/01/26 06:46:26;;;;;;;37.37;23.13;;;0.00;99.90;;;;;;5078083;28;20183;-88
2022/01/26 06:49:28;;;;;;;44.27;25.97;;;0.00;99.90;;;;;;5086078;28;20203;-88
2022/01/26 06:51:53;;;;;;;50.10;26.30;;;0.00;99.90;;;;;;5073493;28;20199;-88
2022/01/26 06:54:20;;;;;;;45.07;26.30;;;-0.20;99.90;;;;;;5072630;28;20191;-88
2022/01/26 06:56:46;;;;;;;42.60;25.70;;;-0.30;99.90;;;;;;5084515;28;20191;-88
2022/01/26 06:59:12;;;;;;;41.13;25.57;;;-0.40;99.90;;;;;;5089285;28;20202;-87
2022/01/26 07:01:39;;;;;;;45.47;24.10;;;-0.30;99.90;;;;;;5086928;28;20187;-88
2022/01/26 07:04:04;;;;;;;41.10;23.53;;;-0.40;99.90;;;;;;5083693;28;20202;-87
2022/01/26 07:06:30;;;;;;;37.70;23.00;;;-0.50;99.90;;;;;;5077973;28;20187;-88
2022/01/26 07:08:56;;;;;;;39.03;22.97;;;-0.50;99.90;;;;;;5081228;28;20204;-88
2022/01/26 07:11:22;;;;;;;38.97;22.53;;;-0.50;99.90;;;;;;5087158;28;20207;-88
2022/01/26 07:13:47;;;;;;;34.17;20.50;;;-0.30;99.90;;;;;;5081416;28;20197;-87
2022/01/26 07:21:42;;;;;;;31.37;19.03;;;-0.20;99.90;;;;;;5088663;28;20226;-88
2022/01/26 07:24:07;;;;;;;35.00;20.60;;;-0.30;99.90;;;;;;5091602;28;20558;-88
2022/01/26 07:26:33;;;;;;;36.90;21.67;;;-0.40;99.90;;;;;;5081977;28;20218;-87
2022/01/26 07:29:10;;;;;;;36.90;22.27;;;-0.50;99.90;;;;;;5068895;28;20249;-88
2022/01/26 07:31:38;;;;;;;36.60;22.20;;;-0.40;99.90;;;;;;5098278;28;20195;-87
2022/01/26 07:34:04;;;;;;;35.80;20.50;;;-0.40;99.90;;;;;;5100413;28;20187;-88
2022/01/26 07:36:29;;;;;;;34.37;20.03;;;-0.50;99.90;;;;;;5094893;28;20187;-87
2022/01/26 07:39:05;;;;;;;35.60;21.57;;;-0.40;99.90;;;;;;5092812;28;20229;-88
2022/01/26 07:41:30;;;;;;;39.40;21.80;;;-0.20;99.90;;;;;;5085195;28;20175;-88
2022/01/26 07:43:56;;;;;;;32.07;20.07;;;-0.20;99.90;;;;;;5072701;28;20202;-88
2022/01/26 07:46:24;;;;;;;33.90;20.40;;;-0.20;99.90;;;;;;5088143;28;20199;-88
2022/01/26 07:48:50;;;;;;;33.10;20.20;;;-0.20;99.90;;;;;;5085824;28;20666;-89
2022/01/26 07:51:15;;;;;;;32.50;20.40;;;-0.30;99.90;;;;;;5077772;28;20209;-88
2022/01/26 07:53:41;;;;;;;33.77;20.27;;;-0.40;99.90;;;;;;5089699;28;20234;-88
2022/01/26 07:56:07;;;;;;;33.97;20.50;;;-0.50;99.90;;;;;;5067082;28;20259;-88
2022/01/26 07:58:33;;;;;;;33.27;19.67;;;-0.50;99.90;;;;;;5086499;28;20234;-87
2022/01/26 08:00:58;;;;;;;30.17;19.87;;;-0.50;99.90;;;;;;5069312;28;20282;-88
2022/01/26 08:03:25;;;;;;;33.73;19.23;;;-0.50;99.90;;;;;;5069848;28;20199;-88
2022/01/26 08:05:51;;;;;;;31.03;18.90;;;-0.40;99.90;;;;;;5091917;28;20186;-88
2022/01/26 08:08:16;;;;;;;34.07;20.33;;;-0.50;99.90;;;;;;5091908;28;20219;-87
2022/01/26 08:10:42;;;;;;;27.63;18.10;;;-0.50;99.90;;;;;;5094545;28;20207;-88
2022/01/26 08:13:08;;;;;;;31.70;20.10;;;-0.50;99.90;;;;;;5096347;28;20187;-88
2022/01/26 08:15:34;;;;;;;30.13;19.07;;;-0.60;99.90;;;;;;5068450;28;20196;-88
2022/01/26 08:17:59;;;;;;;31.70;19.67;;;-0.50;99.90;;;;;;5096385;28;20214;-88
2022/01/26 08:20:26;;;;;;;31.53;19.53;;;-0.60;99.90;;;;;;5094551;28;20214;-88
2022/01/26 08:22:53;;;;;;;29.37;19.80;;;-0.60;99.90;;;;;;5086745;28;20275;-89
2022/01/26 08:25:21;;;;;;;27.27;18.17;;;-0.70;99.90;;;;;;5091028;28;20184;-87
2022/01/26 08:27:53;;;;;;;32.10;20.70;;;-0.50;99.90;;;;;;5090746;28;20203;-87
2022/01/26 08:30:20;;;;;;;29.17;19.43;;;-0.50;99.90;;;;;;5089980;28;20190;-86
2022/01/26 08:32:46;;;;;;;27.27;17.57;;;-0.50;99.90;;;;;;5079402;28;20206;-87
2022/01/26 08:35:12;;;;;;;28.20;16.97;;;-0.60;99.90;;;;;;5094887;28;20193;-87
2022/01/26 08:37:38;;;;;;;29.57;18.43;;;-0.50;99.90;;;;;;5085676;28;20246;-87
2022/01/26 08:40:05;;;;;;;29.07;19.37;;;-0.40;99.90;;;;;;5083540;28;20192;-87
2022/01/26 08:42:31;;;;;;;26.43;18.80;;;-0.40;99.90;;;;;;5109217;28;20199;-88
2022/01/26 08:44:57;;;;;;;25.47;17.93;;;-0.30;99.90;;;;;;5114752;28;20186;-87
2022/01/26 08:47:23;;;;;;;27.67;17.47;;;-0.30;99.90;;;;;;5087748;28;20207;-87
2022/01/26 08:49:49;;;;;;;24.27;17.40;;;-0.30;99.90;;;;;;5090590;28;20183;-87
2022/01/26 08:52:14;;;;;;;27.00;17.67;;;-0.20;99.90;;;;;;5093334;28;20206;-87
2022/01/26 08:54:40;;;;;;;30.63;19.07;;;-0.20;99.90;;;;;;5100143;28;20180;-88
2022/01/26 08:57:06;;;;;;;28.70;16.10;;;-0.10;99.90;;;;;;5104688;28;20223;-87
2022/01/26 08:59:32;;;;;;;24.97;16.87;;;-0.10;99.90;;;;;;5104709;28;20202;-87
2022/01/26 09:01:57;;;;;;;28.73;16.20;;;0.00;99.90;;;;;;5108116;28;20264;-87
2022/01/26 09:04:23;;;;;;;26.70;16.57;;;0.00;99.90;;;;;;5063421;28;20200;-87
2022/01/26 09:06:57;;;;;;;21.57;15.10;;;0.00;99.90;;;;;;5090088;28;20219;-87
2022/01/26 09:09:26;;;;;;;23.97;15.63;;;0.10;99.90;;;;;;5053858;28;20198;-87
2022/01/26 09:11:54;;;;;;;25.20;18.10;;;0.10;99.90;;;;;;5088731;28;20195;-87
2022/01/26 09:14:23;;;;;;;27.87;16.33;;;0.30;99.90;;;;;;5088452;28;20196;-87
2022/01/26 09:16:52;;;;;;;24.67;17.07;;;0.30;99.90;;;;;;5073080;28;20239;-87
2022/01/26 09:19:38;;;;;;;25.30;15.93;;;0.40;99.90;;;;;;5084362;28;20176;-87
2022/01/26 09:22:10;;;;;;;29.60;17.97;;;0.30;99.90;;;;;;5067336;28;20286;-87
2022/01/26 09:24:38;;;;;;;29.47;16.30;;;0.30;99.90;;;;;;5084348;28;20183;-86
2022/01/26 09:27:06;;;;;;;28.87;17.73;;;0.30;99.90;;;;;;5081613;28;20207;-87
2022/01/26 09:29:32;;;;;;;30.40;17.80;;;0.10;99.90;;;;;;5082864;28;20669;-88
2022/01/26 09:31:58;;;;;;;26.80;16.83;;;0.00;99.90;;;;;;5089105;28;20229;-87
2022/01/26 09:34:28;;;;;;;29.93;18.43;;;0.10;99.90;;;;;;5095939;28;20203;-87
2022/01/26 09:36:53;;;;;;;28.23;17.33;;;0.00;99.90;;;;;;5083274;28;20724;-87
2022/01/26 09:39:21;;;;;;;26.70;16.77;;;0.00;99.90;;;;;;5053122;28;20187;-87
2022/01/26 09:41:49;;;;;;;28.63;16.13;;;0.10;99.90;;;;;;5085964;28;20247;-87
2022/01/26 09:44:16;;;;;;;28.07;16.40;;;0.10;99.90;;;;;;5083194;28;20705;-87
2022/01/26 09:46:43;;;;;;;29.47;15.67;;;0.10;99.90;;;;;;5091160;28;20222;-86
2022/01/26 09:49:09;;;;;;;29.77;16.30;;;0.20;99.90;;;;;;5092242;28;20216;-87
2022/01/26 09:51:43;;;;;;;26.53;15.57;;;0.10;99.90;;;;;;5100376;28;20202;-87
2022/01/26 09:54:15;;;;;;;27.27;16.67;;;0.10;99.90;;;;;;5088347;28;20191;-87
2022/01/26 09:56:46;;;;;;;26.33;15.53;;;0.20;99.90;;;;;;5097359;28;20254;-87
2022/01/26 09:59:13;;;;;;;29.37;16.70;;;0.20;99.90;;;;;;5076744;28;20206;-87
2022/01/26 10:01:47;;;;;;;27.77;16.83;;;0.20;99.90;;;;;;5069799;28;20197;-86
2022/01/26 10:04:20;;;;;;;24.40;14.43;;;0.10;99.90;;;;;;5086900;28;20256;-87
2022/01/26 10:07:01;;;;;;;28.03;15.87;;;0.20;99.90;;;;;;5093787;28;20192;-87
2022/01/26 10:17:44;;;;;;;21.10;13.10;;;0.20;99.90;;;;;;5083052;28;20226;-87
2022/01/26 10:20:15;;;;;;;22.00;14.77;;;0.30;99.90;;;;;;5089673;28;20187;-87
2022/01/26 10:22:41;;;;;;;21.17;13.30;;;0.30;99.90;;;;;;5096306;28;20185;-87
2022/01/26 10:25:17;;;;;;;19.07;12.97;;;0.30;99.90;;;;;;5084897;28;20245;-82
2022/01/26 10:27:45;;;;;;;18.80;13.03;;;0.40;99.90;;;;;;5087931;28;20219;-87
2022/01/26 10:30:14;;;;;;;19.00;13.57;;;0.30;99.90;;;;;;5068417;28;20218;-86
2022/01/26 10:32:41;;;;;;;22.17;14.83;;;0.30;99.90;;;;;;5099575;28;20187;-87
2022/01/26 10:35:09;;;;;;;25.63;18.50;;;0.30;99.90;;;;;;5072674;28;20192;-87
2022/01/26 10:37:38;;;;;;;17.47;13.00;;;0.30;99.90;;;;;;5078076;28;20731;-87
2022/01/26 10:40:09;;;;;;;18.60;14.87;;;0.40;99.90;;;;;;5080919;28;20196;-87
2022/01/26 10:42:35;;;;;;;16.23;12.17;;;0.50;99.90;;;;;;5096908;28;20256;-87
2022/01/26 10:47:35;;;;;;;16.97;12.73;;;0.60;99.90;;;;;;5078443;28;20581;-87
2022/01/26 10:50:29;;;;;;;19.07;13.77;;;0.50;99.90;;;;;;5082062;28;20184;-86
2022/01/26 10:52:56;;;;;;;18.03;13.17;;;0.50;99.90;;;;;;5085737;28;20662;-87
2022/01/26 10:55:23;;;;;;;17.73;13.47;;;0.50;99.90;;;;;;5088879;28;20268;-86
2022/01/26 10:57:48;;;;;;;19.07;15.03;;;0.60;99.90;;;;;;5092791;28;20661;-86
2022/01/26 11:00:15;;;;;;;19.70;14.90;;;0.60;99.90;;;;;;5070091;28;20225;-86
2022/01/26 11:02:43;;;;;;;18.80;14.83;;;0.60;99.90;;;;;;5088767;28;20187;-87
2022/01/26 11:05:09;;;;;;;17.37;12.17;;;0.60;99.90;;;;;;5075923;28;20171;-87
2022/01/26 11:07:41;;;;;;;18.10;12.93;;;0.50;99.90;;;;;;5096404;28;20225;-87
2022/01/26 11:10:08;;;;;;;17.23;13.00;;;0.50;99.90;;;;;;5097701;28;20176;-85
2022/01/26 11:12:38;;;;;;;16.83;12.60;;;0.50;99.90;;;;;;5088284;28;20186;-87
2022/01/26 11:15:11;;;;;;;15.23;12.10;;;0.50;99.90;;;;;;5093446;28;20210;-86
2022/01/26 11:17:43;;;;;;;20.07;12.63;;;0.50;99.90;;;;;;5104907;28;20222;-86
2022/01/26 11:20:14;;;;;;;19.83;14.40;;;0.50;99.90;;;;;;5113608;28;20206;-86
2022/01/26 11:22:52;;;;;;;20.57;13.63;;;0.50;99.90;;;;;;5104287;28;20194;-87
2022/01/26 11:25:19;;;;;;;19.23;12.97;;;0.40;99.90;;;;;;5102443;28;20189;-86
2022/01/26 11:27:45;;;;;;;20.57;14.43;;;0.30;99.90;;;;;;5110368;28;20210;-87
2022/01/26 11:30:33;;;;;;;21.23;15.40;;;0.30;99.90;;;;;;5107212;28;20187;-87
2022/01/26 11:32:59;;;;;;;20.07;14.50;;;0.30;99.90;;;;;;5091576;28;20193;-86
2022/01/26 11:35:31;;;;;;;20.93;14.10;;;0.40;99.90;;;;;;5084618;28;20187;-86
2022/01/26 11:38:29;;;;;;;20.00;13.20;;;0.60;99.90;;;;;;5099236;28;20550;-87
2022/01/26 11:46:36;;;;;;;19.83;14.27;;;0.30;99.90;;;;;;5102708;28;20177;-87
2022/01/26 11:49:11;;;;;;;20.13;13.43;;;0.30;99.90;;;;;;5098188;28;20206;-87
2022/01/26 11:51:48;;;;;;;21.10;13.57;;;0.30;99.90;;;;;;5104010;28;20701;-86
2022/01/26 11:54:24;;;;;;;19.60;12.80;;;0.30;99.90;;;;;;5075844;28;20190;-87
2022/01/26 11:57:07;;;;;;;18.63;11.90;;;0.40;99.90;;;;;;5098514;28;20396;-87
2022/01/26 11:59:35;;;;;;;20.47;13.13;;;0.40;99.90;;;;;;5078911;28;20678;-87
2022/01/26 12:02:07;;;;;;;19.50;12.87;;;0.60;99.90;;;;;;5094793;28;20645;-87
2022/01/26 12:04:36;;;;;;;20.43;13.53;;;0.50;99.90;;;;;;5081754;28;20665;-87
2022/01/26 12:07:11;;;;;;;22.97;13.87;;;0.40;99.90;;;;;;5076558;28;20251;-87
2022/01/26 12:09:40;;;;;;;21.40;13.03;;;0.30;99.90;;;;;;5107609;28;20186;-86
2022/01/26 12:12:08;;;;;;;18.60;11.30;;;0.40;99.90;;;;;;5100828;28;20179;-87
2022/01/26 12:14:34;;;;;;;19.97;12.57;;;0.40;99.90;;;;;;5105531;28;20194;-87
2022/01/26 12:17:04;;;;;;;20.77;12.77;;;0.40;99.90;;;;;;5098964;28;20329;-87
2022/01/26 12:19:41;;;;;;;18.90;12.40;;;0.40;99.90;;;;;;5099922;28;20217;-86
2022/01/26 12:36:35;;;;;;;18.80;12.73;;;0.30;99.90;;;;;;5105421;28;20256;-87
2022/01/26 12:39:04;;;;;;;18.33;13.03;;;0.20;99.90;;;;;;5107466;28;20236;-86
2022/01/26 12:41:33;;;;;;;20.40;12.17;;;0.40;99.90;;;;;;5092186;28;20557;-86
2022/01/26 12:44:08;;;;;;;21.27;12.20;;;0.50;99.90;;;;;;5105464;28;20175;-86
2022/01/26 12:46:35;;;;;;;18.70;11.70;;;0.60;99.90;;;;;;5111143;28;20183;-87
2022/01/26 12:49:17;;;;;;;17.10;11.93;;;0.60;99.90;;;;;;5107383;28;20186;-86
2022/01/26 12:51:45;;;;;;;20.37;11.83;;;0.60;99.90;;;;;;5104398;28;20186;-87
2022/01/26 12:54:11;;;;;;;20.37;13.10;;;0.60;99.90;;;;;;5104530;28;20182;-86
2022/01/26 12:56:37;;;;;;;22.43;12.77;;;0.70;99.90;;;;;;5104368;28;20217;-86
2022/01/26 12:59:04;;;;;;;22.70;12.90;;;0.50;99.90;;;;;;5101354;28;20289;-86
2022/01/26 13:01:30;;;;;;;21.33;12.07;;;0.50;99.90;;;;;;5070213;28;20623;-86
2022/01/26 13:03:59;;;;;;;21.13;13.10;;;0.40;99.90;;;;;;5086819;28;20209;-86
2022/01/26 13:06:31;;;;;;;16.70;11.20;;;0.40;99.90;;;;;;5098557;28;20692;-86
2022/01/26 13:09:00;;;;;;;22.00;12.83;;;0.50;99.90;;;;;;5104908;28;20245;-87
2022/01/26 13:11:32;;;;;;;22.63;13.40;;;0.30;99.90;;;;;;5108369;28;20203;-87
2022/01/26 13:14:15;;;;;;;26.60;13.50;;;0.20;99.90;;;;;;5104351;28;20191;-86
2022/01/26 13:16:55;;;;;;;23.60;13.20;;;0.20;99.90;;;;;;5104389;28;20197;-87
2022/01/26 13:22:24;;;;;;;21.40;12.00;;;0.50;99.90;;;;;;5100862;28;20198;-87
2022/01/26 13:30:26;;;;;;;14.53;10.50;;;0.70;99.90;;;;;;5103285;28;20191;-86
2022/01/26 13:33:12;;;;;;;17.87;10.37;;;0.70;99.90;;;;;;5107350;28;20202;-86
2022/01/26 13:35:53;;;;;;;12.23;8.90;;;0.70;99.90;;;;;;5075876;28;20194;-87
2022/01/26 13:38:34;;;;;;;15.67;9.60;;;0.70;99.90;;;;;;5072435;28;20249;-87
2022/01/26 13:41:16;;;;;;;17.37;10.07;;;0.70;99.90;;;;;;5107244;28;20261;-86
2022/01/26 13:52:00;;;;;;;16.10;9.63;;;0.60;99.90;;;;;;5097696;28;20665;-86
2022/01/26 13:57:10;;;;;;;18.30;10.50;;;0.50;99.90;;;;;;5107761;28;20253;-87
2022/01/26 13:59:52;;;;;;;15.07;10.33;;;0.50;99.90;;;;;;5078285;28;20187;-86
2022/01/26 14:02:18;;;;;;;16.63;10.80;;;0.50;99.90;;;;;;5102455;28;20212;-87
2022/01/26 14:04:43;;;;;;;14.73;9.30;;;0.60;99.90;;;;;;5087002;28;20186;-87
2022/01/26 14:07:09;;;;;;;14.67;9.43;;;0.60;99.90;;;;;;5083998;28;20195;-86
2022/01/26 14:09:36;;;;;;;15.13;9.97;;;0.50;99.90;;;;;;5085922;28;20187;-87
2022/01/26 14:12:02;;;;;;;14.70;10.37;;;0.50;99.90;;;;;;5108089;28;20209;-86
2022/01/26 14:14:35;;;;;;;17.87;10.33;;;0.50;99.90;;;;;;5104454;28;20182;-86
2022/01/26 14:17:03;;;;;;;17.50;10.73;;;0.50;99.90;;;;;;5106815;28;20202;-86
2022/01/26 14:19:56;;;;;;;13.50;9.93;;;0.50;99.90;;;;;;5105280;28;20568;-87
2022/01/26 14:27:23;;;;;;;16.37;10.73;;;0.60;99.90;;;;;;5107743;28;20195;-88
2022/01/26 14:30:12;;;;;;;15.37;10.30;;;0.50;99.90;;;;;;5105319;28;20194;-87
2022/01/26 15:00:01;;;;;;;17.07;11.10;;;0.60;99.90;;;;;;5105493;28;20187;-87
2022/01/26 17:13:01;;;;;;;21.33;15.93;;;0.50;99.90;;;;;;5110570;28;20748;-87
2022/01/26 17:25:50;;;;;;;16.63;10.63;;;0.30;99.90;;;;;;5114018;28;20240;-88
2022/01/26 18:17:28;;;;;;;16.20;10.60;;;0.10;99.90;;;;;;5107183;28;20202;-85
2022/01/26 18:33:26;;;;;;;18.73;10.90;;;0.00;99.90;;;;;;5087448;28;20679;-86
2022/01/26 18:39:02;;;;;;;18.07;11.00;;;0.10;99.90;;;;;;5100246;28;20229;-86
2022/01/26 18:49:43;;;;;;;15.17;10.67;;;-0.10;99.90;;;;;;5075131;28;20664;-86
2022/01/26 18:52:09;;;;;;;18.73;11.40;;;-0.20;99.90;;;;;;5075613;28;20183;-86
2022/01/26 18:54:39;;;;;;;14.63;10.30;;;-0.30;99.90;;;;;;5116794;28;20263;-86
2022/01/26 18:57:08;;;;;;;16.63;10.10;;;-0.30;99.90;;;;;;5081727;28;20215;-85
2022/01/26 18:59:35;;;;;;;14.30;10.10;;;-0.20;99.90;;;;;;5075251;28;20178;-85
2022/01/26 19:02:01;;;;;;;14.70;10.00;;;-0.10;99.90;;;;;;5080367;28;20190;-86
2022/01/26 19:04:40;;;;;;;14.33;9.50;;;-0.20;99.90;;;;;;5087792;28;20319;-86
2022/01/26 19:07:07;;;;;;;15.50;10.93;;;-0.30;99.90;;;;;;5096395;28;20210;-86
2022/01/26 19:09:38;;;;;;;15.70;9.77;;;-0.30;99.90;;;;;;5078491;28;20591;-86
2022/01/26 19:12:07;;;;;;;15.57;10.00;;;-0.30;99.90;;;;;;5076845;28;20212;-86
2022/01/26 19:14:37;;;;;;;15.73;9.50;;;-0.20;99.90;;;;;;5096238;28;20240;-85
2022/01/26 19:17:14;;;;;;;15.90;10.40;;;-0.20;99.90;;;;;;5072614;28;20656;-86